Terminal Aerodrome Forecast
Issued by NWS Cleveland, OH

Home | Current Version | Previous Version | Text Only | Print | Product List | Glossary On
Versions: 1 2 3 4 5 6 7 8 9 10 11 12
316
FTUS41 KCLE 251120
TAFERI
TAF
KERI 251120Z 2512/2612 21008KT P6SM BKN250
     FM251600 26010KT P6SM FEW060 SCT100
     FM251800 29010G18KT P6SM FEW100 SCT250
     FM252200 26006KT P6SM FEW100 SCT250
     FM260200 18004KT P6SM SCT100 BKN200=

USA.gov is the U.S. government's official web portal to all federal, state and local government web resources and services.